createdAt,value
2018-12-30T00:00:19.737Z,1021.74
2018-12-30T00:01:19.768Z,1021.75
2018-12-30T00:02:19.707Z,1021.79
2018-12-30T00:03:19.694Z,1021.80
2018-12-30T00:04:19.680Z,1021.77
2018-12-30T00:05:19.670Z,1021.79
2018-12-30T00:06:19.660Z,1021.84
2018-12-30T00:07:19.901Z,1021.87
2018-12-30T00:08:19.638Z,1021.81
2018-12-30T00:09:19.631Z,1021.89
2018-12-30T00:10:19.637Z,1021.91
2018-12-30T00:11:19.621Z,1021.98
2018-12-30T00:12:19.592Z,1022.00
2018-12-30T00:13:19.583Z,1022.08
2018-12-30T00:14:20.087Z,1022.03
2018-12-30T00:15:19.704Z,1022.07
2018-12-30T00:16:20.467Z,1022.09
2018-12-30T00:17:19.553Z,1022.15
2018-12-30T00:18:20.239Z,1022.17
2018-12-30T00:19:19.518Z,1022.12
2018-12-30T00:20:20.516Z,1021.97
2018-12-30T00:21:19.515Z,1021.96
2018-12-30T00:22:19.504Z,1022.02
2018-12-30T00:23:19.473Z,1022.01
2018-12-30T00:24:19.475Z,1022.04
2018-12-30T00:25:19.471Z,1022.03
2018-12-30T00:26:19.631Z,1022.12
2018-12-30T00:27:19.429Z,1022.09
2018-12-30T00:28:19.635Z,1022.18
2018-12-30T00:29:19.426Z,1022.24
2018-12-30T00:30:19.925Z,1022.27
2018-12-30T00:31:19.431Z,1022.27
2018-12-30T00:32:20.642Z,1022.28
2018-12-30T00:33:19.370Z,1022.31
2018-12-30T00:34:19.613Z,1022.38
2018-12-30T00:35:19.683Z,1022.34
2018-12-30T00:36:19.382Z,1022.41
2018-12-30T00:37:19.320Z,1022.31
2018-12-30T00:38:19.381Z,1022.35
2018-12-30T00:39:19.301Z,1022.32
2018-12-30T00:40:19.312Z,1022.38
2018-12-30T00:41:19.281Z,1022.36
2018-12-30T00:42:19.285Z,1022.36
2018-12-30T00:43:19.255Z,1022.38
2018-12-30T00:44:19.242Z,1022.40
2018-12-30T00:45:19.245Z,1022.45
2018-12-30T00:46:19.232Z,1022.53
2018-12-30T00:47:19.208Z,1022.46
2018-12-30T00:48:19.245Z,1022.39
2018-12-30T00:49:19.203Z,1022.42
2018-12-30T00:50:19.191Z,1022.50
2018-12-30T00:51:19.164Z,1022.46
2018-12-30T00:52:19.148Z,1022.43
2018-12-30T00:53:19.423Z,1022.52
2018-12-30T00:54:19.142Z,1022.43
2018-12-30T00:55:19.621Z,1022.45
2018-12-30T00:56:19.118Z,1022.50
2018-12-30T00:57:19.094Z,1022.60
2018-12-30T00:58:19.080Z,1022.54
2018-12-30T00:59:19.337Z,1022.72
2018-12-30T01:00:19.093Z,1022.74
2018-12-30T01:01:19.061Z,1022.63
2018-12-30T01:02:19.091Z,1022.60
2018-12-30T01:03:19.032Z,1022.67
2018-12-30T01:04:19.015Z,1022.77
2018-12-30T01:05:19.032Z,1022.70
2018-12-30T01:06:18.998Z,1022.73
2018-12-30T01:07:18.987Z,1022.72
2018-12-30T01:08:19.486Z,1022.76
2018-12-30T01:09:19.029Z,1022.77
2018-12-30T01:10:19.201Z,1022.73
2018-12-30T01:11:19.005Z,1022.73
2018-12-30T01:12:18.930Z,1022.78
2018-12-30T01:13:18.911Z,1022.73
2018-12-30T01:14:18.984Z,1022.78
2018-12-30T01:15:18.906Z,1022.76
2018-12-30T01:16:18.889Z,1022.82
2018-12-30T01:17:18.873Z,1022.86
2018-12-30T01:18:18.864Z,1022.85
2018-12-30T01:19:18.846Z,1022.78
2018-12-30T01:20:18.833Z,1022.88
2018-12-30T01:21:24.934Z,1022.80
2018-12-30T01:22:18.813Z,1022.81
2018-12-30T01:23:19.050Z,1022.82
2018-12-30T01:24:18.826Z,1022.76
2018-12-30T01:25:18.790Z,1022.90
2018-12-30T01:26:18.794Z,1022.80
2018-12-30T01:27:18.763Z,1022.81
2018-12-30T01:28:18.763Z,1022.80
2018-12-30T01:29:18.739Z,1022.82
2018-12-30T01:30:18.740Z,1022.94
2018-12-30T01:31:18.740Z,1022.85
2018-12-30T01:32:18.709Z,1022.90
2018-12-30T01:33:18.691Z,1022.91
2018-12-30T01:34:18.676Z,1022.96
2018-12-30T01:35:18.677Z,1022.98
2018-12-30T01:36:18.672Z,1022.89
2018-12-30T01:37:18.653Z,1022.92
2018-12-30T01:38:18.628Z,1023.00
2018-12-30T01:39:18.623Z,1022.96
2018-12-30T01:40:18.640Z,1022.90
2018-12-30T01:41:18.612Z,1022.97
2018-12-30T01:42:18.606Z,1023.01
2018-12-30T01:43:18.582Z,1022.93
2018-12-30T01:44:18.569Z,1022.94
2018-12-30T01:45:18.558Z,1022.90
2018-12-30T01:46:18.556Z,1022.99
2018-12-30T01:47:18.546Z,1022.90
2018-12-30T01:48:18.519Z,1022.93
2018-12-30T01:49:18.511Z,1022.92
2018-12-30T01:50:18.494Z,1022.95
2018-12-30T01:51:18.502Z,1023.08
2018-12-30T01:52:18.484Z,1023.02
2018-12-30T01:53:18.977Z,1023.10
2018-12-30T01:54:18.452Z,1023.13
2018-12-30T01:55:18.439Z,1023.16
2018-12-30T01:56:18.529Z,1023.15
2018-12-30T01:57:18.672Z,1023.15
2018-12-30T01:58:18.409Z,1023.19
2018-12-30T01:59:18.438Z,1023.22
2018-12-30T02:00:18.383Z,1023.20
2018-12-30T02:01:18.436Z,1023.25
2018-12-30T02:02:18.381Z,1023.33
2018-12-30T02:03:18.349Z,1023.29
2018-12-30T02:04:18.607Z,1023.28
2018-12-30T02:05:18.334Z,1023.17
2018-12-30T02:06:18.331Z,1023.18
2018-12-30T02:07:18.315Z,1023.20
2018-12-30T02:08:18.308Z,1023.14
2018-12-30T02:09:18.290Z,1023.23
2018-12-30T02:10:18.532Z,1023.26
2018-12-30T02:11:18.274Z,1023.32
2018-12-30T02:12:18.256Z,1023.35
2018-12-30T02:13:18.241Z,1023.32
2018-12-30T02:14:18.246Z,1023.32
2018-12-30T02:15:18.221Z,1023.32
2018-12-30T02:16:18.469Z,1023.32
2018-12-30T02:17:18.195Z,1023.30
2018-12-30T02:18:18.185Z,1023.31
2018-12-30T02:19:18.173Z,1023.35
2018-12-30T02:20:18.420Z,1023.31
2018-12-30T02:21:18.181Z,1023.38
2018-12-30T02:22:18.138Z,1023.36
2018-12-30T02:23:18.127Z,1023.35
2018-12-30T02:24:18.112Z,1023.26
2018-12-30T02:25:18.107Z,1023.36
2018-12-30T02:26:18.105Z,1023.36
2018-12-30T02:27:18.095Z,1023.36
2018-12-30T02:28:18.073Z,1023.35
2018-12-30T02:29:18.057Z,1023.37
2018-12-30T02:30:18.053Z,1023.45
2018-12-30T02:31:18.056Z,1023.45
2018-12-30T02:32:18.036Z,1023.53
2018-12-30T02:33:18.011Z,1023.49
2018-12-30T02:34:18.179Z,1023.44
2018-12-30T02:35:18.005Z,1023.46
2018-12-30T02:36:17.996Z,1023.49
2018-12-30T02:37:18.271Z,1023.49
2018-12-30T02:38:17.979Z,1023.50
2018-12-30T02:39:17.962Z,1023.45
2018-12-30T02:40:17.941Z,1023.51
2018-12-30T02:41:18.190Z,1023.51
2018-12-30T02:42:17.920Z,1023.58
2018-12-30T02:43:17.955Z,1023.52
2018-12-30T02:44:18.152Z,1023.57
2018-12-30T02:45:17.888Z,1023.51
2018-12-30T02:46:17.872Z,1023.59
2018-12-30T02:47:17.891Z,1023.55
2018-12-30T02:48:17.845Z,1023.60
2018-12-30T02:49:18.095Z,1023.58
2018-12-30T02:50:17.877Z,1023.57
2018-12-30T02:51:17.827Z,1023.58
2018-12-30T02:52:17.818Z,1023.54
2018-12-30T02:53:17.798Z,1023.55
2018-12-30T02:54:17.781Z,1023.57
2018-12-30T02:55:17.785Z,1023.60
2018-12-30T02:56:17.767Z,1023.67
2018-12-30T02:57:17.766Z,1023.52
2018-12-30T02:58:17.744Z,1023.39
2018-12-30T02:59:17.736Z,1023.38
2018-12-30T03:00:17.982Z,1023.42
2018-12-30T03:01:17.704Z,1023.47
2018-12-30T03:02:17.711Z,1023.52
2018-12-30T03:03:17.688Z,1023.49
2018-12-30T03:04:17.926Z,1023.56
2018-12-30T03:05:17.665Z,1023.55
2018-12-30T03:06:17.914Z,1023.51
2018-12-30T03:07:17.908Z,1023.51
2018-12-30T03:08:17.628Z,1023.49
2018-12-30T03:09:17.612Z,1023.49
2018-12-30T03:10:17.612Z,1023.42
2018-12-30T03:11:17.632Z,1023.39
2018-12-30T03:12:17.592Z,1023.43
2018-12-30T03:13:17.574Z,1023.49
2018-12-30T03:14:17.557Z,1023.41
2018-12-30T03:15:17.564Z,1023.40
2018-12-30T03:16:17.541Z,1023.34
2018-12-30T03:17:17.572Z,1023.38
2018-12-30T03:18:17.820Z,1023.38
2018-12-30T03:19:17.507Z,1023.34
2018-12-30T03:20:17.491Z,1023.32
2018-12-30T03:21:17.482Z,1023.33
2018-12-30T03:22:17.487Z,1023.30
2018-12-30T03:23:17.468Z,1023.32
2018-12-30T03:24:17.465Z,1023.34
2018-12-30T03:25:17.435Z,1023.37
2018-12-30T03:26:17.425Z,1023.35
2018-12-30T03:27:17.430Z,1023.35
2018-12-30T03:28:17.663Z,1023.31
2018-12-30T03:29:17.389Z,1023.37
2018-12-30T03:30:17.380Z,1023.42
2018-12-30T03:31:17.368Z,1023.38
2018-12-30T03:32:17.376Z,1023.41
2018-12-30T03:33:17.409Z,1023.34
2018-12-30T03:34:17.334Z,1023.37
2018-12-30T03:35:17.325Z,1023.39
2018-12-30T03:36:17.368Z,1023.40
2018-12-30T03:37:17.328Z,1023.38
2018-12-30T03:38:17.306Z,1023.39
2018-12-30T03:39:17.544Z,1023.37
2018-12-30T03:40:17.277Z,1023.35
2018-12-30T03:41:17.259Z,1023.46
2018-12-30T03:42:17.260Z,1023.47
2018-12-30T03:43:17.237Z,1023.50
2018-12-30T03:44:17.238Z,1023.55
2018-12-30T03:45:17.210Z,1023.42
2018-12-30T03:46:17.205Z,1023.34
2018-12-30T03:47:17.212Z,1023.34
2018-12-30T03:48:17.181Z,1023.37
2018-12-30T03:49:17.674Z,1023.35
2018-12-30T03:50:17.154Z,1023.38
2018-12-30T03:51:17.164Z,1023.42
2018-12-30T03:52:17.148Z,1023.47
2018-12-30T03:53:17.121Z,1023.37
2018-12-30T03:54:17.124Z,1023.40
2018-12-30T03:55:17.152Z,1023.38
2018-12-30T03:56:17.344Z,1023.30
2018-12-30T03:57:17.114Z,1023.29
2018-12-30T03:58:17.084Z,1023.24
2018-12-30T03:59:17.055Z,1023.27
2018-12-30T04:00:17.051Z,1023.19
2018-12-30T04:01:17.059Z,1023.16
2018-12-30T04:02:17.115Z,1023.24
2018-12-30T04:03:17.031Z,1023.33
2018-12-30T04:04:16.998Z,1023.28
2018-12-30T04:05:17.007Z,1023.29
2018-12-30T04:06:16.973Z,1023.32
2018-12-30T04:07:17.212Z,1023.40
2018-12-30T04:08:16.971Z,1023.41
2018-12-30T04:09:17.210Z,1023.49
2018-12-30T04:10:16.997Z,1023.53
2018-12-30T04:11:17.234Z,1023.61
2018-12-30T04:12:16.913Z,1023.58
2018-12-30T04:13:16.914Z,1023.63
2018-12-30T04:14:16.922Z,1023.66
2018-12-30T04:15:16.882Z,1023.61
2018-12-30T04:16:16.868Z,1023.65
2018-12-30T04:17:17.105Z,1023.64
2018-12-30T04:18:17.373Z,1023.66
2018-12-30T04:19:16.836Z,1023.74
2018-12-30T04:20:16.819Z,1023.71
2018-12-30T04:21:16.809Z,1023.76
2018-12-30T04:22:17.230Z,1023.75
2018-12-30T04:23:16.817Z,1023.68
2018-12-30T04:24:16.785Z,1023.68
2018-12-30T04:25:16.762Z,1023.75
2018-12-30T04:26:16.751Z,1023.67
2018-12-30T04:27:16.773Z,1023.71
2018-12-30T04:28:16.757Z,1023.68
2018-12-30T04:29:16.978Z,1023.73
2018-12-30T04:30:16.717Z,1023.73
2018-12-30T04:31:16.698Z,1023.84
2018-12-30T04:32:16.683Z,1023.83
2018-12-30T04:33:16.688Z,1023.81
2018-12-30T04:34:16.964Z,1023.91
2018-12-30T04:35:16.754Z,1023.97
2018-12-30T04:36:16.809Z,1023.91
2018-12-30T04:37:16.635Z,1023.82
2018-12-30T04:38:16.632Z,1023.87
2018-12-30T04:39:16.619Z,1023.84
2018-12-30T04:40:16.872Z,1023.82
2018-12-30T04:41:16.832Z,1023.85
2018-12-30T04:42:16.579Z,1023.89
2018-12-30T04:43:16.575Z,1023.97
2018-12-30T04:44:16.586Z,1024.00
2018-12-30T04:45:16.547Z,1023.87
2018-12-30T04:46:16.529Z,1023.79
2018-12-30T04:47:16.761Z,1023.86
2018-12-30T04:48:16.531Z,1023.89
2018-12-30T04:49:16.750Z,1023.94
2018-12-30T04:50:16.497Z,1023.73
2018-12-30T04:51:16.747Z,1023.51
2018-12-30T04:52:16.582Z,1023.50
2018-12-30T04:53:16.462Z,1023.76
2018-12-30T04:54:16.467Z,1023.74
2018-12-30T04:55:16.439Z,1023.78
2018-12-30T04:56:16.416Z,1023.83
2018-12-30T04:57:16.418Z,1023.96
2018-12-30T04:58:16.409Z,1023.84
2018-12-30T04:59:16.392Z,1023.80
2018-12-30T05:00:16.366Z,1023.89
2018-12-30T05:01:16.354Z,1023.95
2018-12-30T05:02:16.343Z,1024.07
2018-12-30T05:03:16.349Z,1024.14
2018-12-30T05:04:16.324Z,1024.12
2018-12-30T05:05:16.309Z,1024.12
2018-12-30T05:06:16.316Z,1024.11
2018-12-30T05:07:16.340Z,1024.20
2018-12-30T05:08:16.348Z,1024.18
2018-12-30T05:09:16.283Z,1024.07
2018-12-30T05:10:16.259Z,1024.06
2018-12-30T05:11:16.245Z,1024.04
2018-12-30T05:12:16.285Z,1023.97
2018-12-30T05:13:16.233Z,1024.06
2018-12-30T05:14:16.727Z,1024.06
2018-12-30T05:15:16.215Z,1024.10
2018-12-30T05:16:18.085Z,1024.22
2018-12-30T05:17:16.180Z,1024.26
2018-12-30T05:18:16.180Z,1024.29
2018-12-30T05:19:16.155Z,1024.22
2018-12-30T05:20:16.159Z,1024.16
2018-12-30T05:21:16.398Z,1024.29
2018-12-30T05:22:16.126Z,1024.32
2018-12-30T05:23:16.127Z,1024.39
2018-12-30T05:24:16.111Z,1024.29
2018-12-30T05:25:16.085Z,1024.17
2018-12-30T05:26:16.081Z,1024.25
2018-12-30T05:27:16.071Z,1024.37
2018-12-30T05:28:16.071Z,1024.39
2018-12-30T05:29:16.044Z,1024.39
2018-12-30T05:30:16.030Z,1024.40
2018-12-30T05:31:16.270Z,1024.44
2018-12-30T05:32:16.012Z,1024.41
2018-12-30T05:33:15.997Z,1024.45
2018-12-30T05:34:15.994Z,1024.40
2018-12-30T05:35:15.996Z,1024.29
2018-12-30T05:36:15.959Z,1024.27
2018-12-30T05:37:15.964Z,1024.29
2018-12-30T05:38:15.942Z,1024.32
2018-12-30T05:39:15.966Z,1024.46
2018-12-30T05:40:15.922Z,1024.39
2018-12-30T05:41:15.907Z,1024.48
2018-12-30T05:42:15.918Z,1024.50
2018-12-30T05:43:16.105Z,1024.71
2018-12-30T05:44:15.927Z,1024.81
2018-12-30T05:45:16.120Z,1024.72
2018-12-30T05:46:15.866Z,1024.78
2018-12-30T05:47:15.838Z,1024.92
2018-12-30T05:48:16.079Z,1025.04
2018-12-30T05:49:15.849Z,1024.97
2018-12-30T05:50:15.815Z,1024.84
2018-12-30T05:51:15.799Z,1024.82
2018-12-30T05:52:15.789Z,1024.75
2018-12-30T05:53:15.777Z,1024.68
2018-12-30T05:54:15.804Z,1024.70
2018-12-30T05:55:15.752Z,1024.75
2018-12-30T05:56:15.737Z,1024.66
2018-12-30T05:57:15.730Z,1024.56
2018-12-30T05:58:15.983Z,1024.64
2018-12-30T05:59:15.719Z,1024.64
2018-12-30T06:00:15.710Z,1024.63
2018-12-30T06:01:15.688Z,1024.66
2018-12-30T06:02:15.671Z,1024.60
2018-12-30T06:03:15.674Z,1024.57
2018-12-30T06:04:15.924Z,1024.48
2018-12-30T06:05:15.638Z,1024.33
2018-12-30T06:06:15.625Z,1024.43
2018-12-30T06:07:15.618Z,1024.69
2018-12-30T06:08:15.602Z,1024.82
2018-12-30T06:09:15.606Z,1024.84
2018-12-30T06:10:15.581Z,1024.81
2018-12-30T06:11:15.574Z,1024.82
2018-12-30T06:12:15.564Z,1024.76
2018-12-30T06:13:15.552Z,1024.74
2018-12-30T06:14:15.556Z,1024.70
2018-12-30T06:15:15.780Z,1024.62
2018-12-30T06:16:15.513Z,1024.63
2018-12-30T06:17:15.759Z,1024.56
2018-12-30T06:18:15.502Z,1024.53
2018-12-30T06:19:15.496Z,1024.59
2018-12-30T06:20:15.489Z,1024.64
2018-12-30T06:21:15.457Z,1024.69
2018-12-30T06:22:15.448Z,1024.68
2018-12-30T06:23:15.688Z,1024.67
2018-12-30T06:24:15.517Z,1024.59
2018-12-30T06:25:15.418Z,1024.64
2018-12-30T06:26:15.400Z,1024.69
2018-12-30T06:27:15.630Z,1024.68
2018-12-30T06:28:15.382Z,1024.66
2018-12-30T06:29:15.378Z,1024.69
2018-12-30T06:30:15.392Z,1024.79
2018-12-30T06:31:15.348Z,1024.83
2018-12-30T06:32:15.336Z,1024.84
2018-12-30T06:33:15.586Z,1024.84
2018-12-30T06:34:15.326Z,1024.77
2018-12-30T06:35:15.294Z,1024.74
2018-12-30T06:36:15.307Z,1024.81
2018-12-30T06:37:15.272Z,1024.84
2018-12-30T06:38:15.273Z,1024.93
2018-12-30T06:39:15.269Z,1024.89
2018-12-30T06:40:15.243Z,1024.91
2018-12-30T06:41:15.236Z,1024.88
2018-12-30T06:42:15.216Z,1024.93
2018-12-30T06:43:15.257Z,1025.06
2018-12-30T06:44:15.469Z,1025.04
2018-12-30T06:45:15.194Z,1024.95
2018-12-30T06:46:15.173Z,1024.86
2018-12-30T06:47:15.163Z,1024.97
2018-12-30T06:48:15.159Z,1025.03
2018-12-30T06:49:15.150Z,1025.07
2018-12-30T06:50:15.130Z,1025.11
2018-12-30T06:51:15.487Z,1025.00
2018-12-30T06:52:15.104Z,1025.03
2018-12-30T06:53:16.578Z,1025.16
2018-12-30T06:54:15.101Z,1025.38
2018-12-30T06:55:15.074Z,1025.31
2018-12-30T06:56:15.133Z,1025.35
2018-12-30T06:57:15.057Z,1025.31
2018-12-30T06:58:15.059Z,1025.21
2018-12-30T06:59:15.040Z,1025.19
2018-12-30T07:00:15.017Z,1025.29
2018-12-30T07:01:15.008Z,1025.29
2018-12-30T07:02:15.007Z,1025.32
2018-12-30T07:03:14.989Z,1025.35
2018-12-30T07:04:15.226Z,1025.45
2018-12-30T07:05:14.964Z,1025.37
2018-12-30T07:06:14.989Z,1025.43
2018-12-30T07:07:14.957Z,1025.43
2018-12-30T07:08:14.939Z,1025.42
2018-12-30T07:09:15.009Z,1025.44
2018-12-30T07:10:14.923Z,1025.53
2018-12-30T07:11:14.894Z,1025.60
2018-12-30T07:12:14.892Z,1025.61
2018-12-30T07:13:14.936Z,1025.62
2018-12-30T07:14:14.858Z,1025.67
2018-12-30T07:15:14.863Z,1025.69
2018-12-30T07:16:14.855Z,1025.71
2018-12-30T07:17:14.863Z,1025.75
2018-12-30T07:18:14.831Z,1025.71
2018-12-30T07:19:14.828Z,1025.71
2018-12-30T07:20:14.814Z,1025.76
2018-12-30T07:21:14.790Z,1025.74
2018-12-30T07:22:14.771Z,1025.73
2018-12-30T07:23:14.759Z,1025.74
2018-12-30T07:24:14.806Z,1025.76
2018-12-30T07:25:14.753Z,1025.82
2018-12-30T07:26:14.997Z,1025.79
2018-12-30T07:27:14.720Z,1025.84
2018-12-30T07:28:14.706Z,1025.90
2018-12-30T07:29:14.710Z,1025.92
2018-12-30T07:30:14.718Z,1025.97
2018-12-30T07:31:14.691Z,1025.95
2018-12-30T07:32:14.661Z,1026.00
2018-12-30T07:33:14.647Z,1025.97
2018-12-30T07:34:14.636Z,1025.97
2018-12-30T07:35:14.639Z,1026.00
2018-12-30T07:36:14.615Z,1025.99
2018-12-30T07:37:14.609Z,1026.12
2018-12-30T07:38:14.606Z,1026.08
2018-12-30T07:39:14.623Z,1026.11
2018-12-30T07:40:14.833Z,1026.09
2018-12-30T07:41:14.869Z,1026.07
2018-12-30T07:42:14.812Z,1026.07
2018-12-30T07:43:14.538Z,1025.98
2018-12-30T07:44:14.837Z,1025.99
2018-12-30T07:45:14.788Z,1025.96
2018-12-30T07:46:14.506Z,1025.95
2018-12-30T07:47:14.560Z,1025.99
2018-12-30T07:48:14.550Z,1026.13
2018-12-30T07:49:14.477Z,1026.09
2018-12-30T07:50:14.471Z,1026.06
2018-12-30T07:51:15.026Z,1025.99
2018-12-30T07:52:14.710Z,1026.02
2018-12-30T07:53:14.431Z,1026.06
2018-12-30T07:54:14.417Z,1026.01
2018-12-30T07:55:14.422Z,1025.96
2018-12-30T07:56:14.403Z,1026.00
2018-12-30T07:57:14.378Z,1025.98
2018-12-30T07:58:14.374Z,1026.00
2018-12-30T07:59:14.360Z,1025.98
2018-12-30T08:00:14.361Z,1025.99
2018-12-30T08:01:14.407Z,1025.93
2018-12-30T08:02:14.603Z,1025.98
2018-12-30T08:03:14.311Z,1025.96
2018-12-30T08:04:14.300Z,1025.94
2018-12-30T08:05:14.301Z,1025.97
2018-12-30T08:06:14.276Z,1025.97
2018-12-30T08:07:14.285Z,1026.00
2018-12-30T08:08:14.516Z,1025.99
2018-12-30T08:09:14.503Z,1025.99
2018-12-30T08:10:14.250Z,1026.02
2018-12-30T08:11:14.522Z,1026.04
2018-12-30T08:12:14.217Z,1026.10
2018-12-30T08:13:14.200Z,1026.05
2018-12-30T08:14:14.191Z,1026.06
2018-12-30T08:15:14.353Z,1026.08
2018-12-30T08:16:14.173Z,1026.04
2018-12-30T08:17:14.159Z,1026.02
2018-12-30T08:18:14.151Z,1026.02
2018-12-30T08:19:14.151Z,1026.09
2018-12-30T08:20:14.145Z,1026.07
2018-12-30T08:21:14.113Z,1026.09
2018-12-30T08:22:14.117Z,1026.05
2018-12-30T08:23:21.291Z,1026.05
2018-12-30T08:24:14.083Z,1026.06
2018-12-30T08:25:14.088Z,1026.07
2018-12-30T08:26:14.152Z,1026.11
2018-12-30T08:27:14.060Z,1026.08
2018-12-30T08:28:14.548Z,1026.12
2018-12-30T08:29:14.532Z,1026.14
2018-12-30T08:30:14.011Z,1026.17
2018-12-30T08:31:14.274Z,1026.17
2018-12-30T08:32:13.994Z,1026.12
2018-12-30T08:33:14.231Z,1026.23
2018-12-30T08:34:13.962Z,1026.23
2018-12-30T08:35:13.966Z,1026.20
2018-12-30T08:36:13.968Z,1026.15
2018-12-30T08:37:13.941Z,1026.15
2018-12-30T08:38:13.949Z,1026.28
2018-12-30T08:39:13.925Z,1026.28
2018-12-30T08:40:13.911Z,1026.27
2018-12-30T08:41:13.907Z,1026.30
2018-12-30T08:42:13.888Z,1026.33
2018-12-30T08:43:13.873Z,1026.36
2018-12-30T08:44:14.119Z,1026.35
2018-12-30T08:45:13.840Z,1026.39
2018-12-30T08:46:13.843Z,1026.42
2018-12-30T08:47:13.852Z,1026.39
2018-12-30T08:48:13.811Z,1026.43
2018-12-30T08:49:13.820Z,1026.46
2018-12-30T08:50:13.802Z,1026.42
2018-12-30T08:51:13.798Z,1026.41
2018-12-30T08:52:13.762Z,1026.44
2018-12-30T08:53:14.015Z,1026.35
2018-12-30T08:54:15.578Z,1026.37
2018-12-30T08:55:13.732Z,1026.36
2018-12-30T08:56:13.987Z,1026.31
2018-12-30T08:57:13.712Z,1026.36
2018-12-30T08:58:13.780Z,1026.34
2018-12-30T08:59:13.688Z,1026.39
2018-12-30T09:00:13.680Z,1026.43
2018-12-30T09:01:13.694Z,1026.44
2018-12-30T09:02:14.906Z,1026.48
2018-12-30T09:03:13.894Z,1026.54
2018-12-30T09:04:13.649Z,1026.51
2018-12-30T09:05:13.623Z,1026.41
2018-12-30T09:06:13.909Z,1026.40
2018-12-30T09:07:14.732Z,1026.42
2018-12-30T09:08:13.597Z,1026.48
2018-12-30T09:09:13.579Z,1026.55
2018-12-30T09:10:13.569Z,1026.53
2018-12-30T09:11:13.578Z,1026.49
2018-12-30T09:12:13.582Z,1026.54
2018-12-30T09:13:13.593Z,1026.43
2018-12-30T09:14:13.523Z,1026.42
2018-12-30T09:15:13.518Z,1026.45
2018-12-30T09:16:13.532Z,1026.45
2018-12-30T09:17:13.512Z,1026.47
2018-12-30T09:18:13.478Z,1026.48
2018-12-30T09:19:13.463Z,1026.50
2018-12-30T09:20:13.454Z,1026.54
2018-12-30T09:21:13.456Z,1026.52
2018-12-30T09:22:13.435Z,1026.49
2018-12-30T09:23:13.724Z,1026.55
2018-12-30T09:24:13.412Z,1026.54
2018-12-30T09:25:13.466Z,1026.55
2018-12-30T09:26:13.656Z,1026.59
2018-12-30T09:27:13.377Z,1026.62
2018-12-30T09:28:13.370Z,1026.66
2018-12-30T09:29:13.368Z,1026.64
2018-12-30T09:30:13.347Z,1026.70
2018-12-30T09:31:13.614Z,1026.72
2018-12-30T09:32:13.347Z,1026.68
2018-12-30T09:33:13.321Z,1026.67
2018-12-30T09:34:13.321Z,1026.73
2018-12-30T09:35:13.316Z,1026.75
2018-12-30T09:36:13.567Z,1026.71
2018-12-30T09:37:13.272Z,1026.72
2018-12-30T09:38:13.261Z,1026.73
2018-12-30T09:39:13.252Z,1026.71
2018-12-30T09:40:13.232Z,1026.73
2018-12-30T09:41:13.495Z,1026.74
2018-12-30T09:42:13.220Z,1026.71
2018-12-30T09:43:13.457Z,1026.76
2018-12-30T09:44:13.216Z,1026.75
2018-12-30T09:45:13.445Z,1026.76
2018-12-30T09:46:13.271Z,1026.75
2018-12-30T09:47:13.163Z,1026.80
2018-12-30T09:48:13.659Z,1026.76
2018-12-30T09:49:13.132Z,1026.74
2018-12-30T09:50:13.154Z,1026.78
2018-12-30T09:51:13.422Z,1026.78
2018-12-30T09:52:13.104Z,1026.76
2018-12-30T09:53:13.345Z,1026.71
2018-12-30T09:54:13.079Z,1026.68
2018-12-30T09:55:13.063Z,1026.70
2018-12-30T09:56:13.065Z,1026.71
2018-12-30T09:57:13.053Z,1026.73
2018-12-30T09:58:13.029Z,1026.74
2018-12-30T09:59:13.026Z,1026.71
2018-12-30T10:00:13.017Z,1026.72
2018-12-30T10:01:12.992Z,1026.72
2018-12-30T10:02:12.985Z,1026.75
2018-12-30T10:03:12.975Z,1026.78
2018-12-30T10:04:12.984Z,1026.73
2018-12-30T10:05:12.956Z,1026.73
2018-12-30T10:06:13.029Z,1026.75
2018-12-30T10:07:12.940Z,1026.78
2018-12-30T10:08:12.938Z,1026.83
2018-12-30T10:09:12.915Z,1026.82
2018-12-30T10:10:12.900Z,1026.84
2018-12-30T10:11:13.140Z,1026.92
2018-12-30T10:12:12.887Z,1026.85
2018-12-30T10:13:12.867Z,1026.85
2018-12-30T10:14:12.852Z,1026.83
2018-12-30T10:15:12.854Z,1026.77
2018-12-30T10:16:12.825Z,1026.70
2018-12-30T10:17:12.845Z,1026.74
2018-12-30T10:18:12.806Z,1026.71
2018-12-30T10:19:12.793Z,1026.83
2018-12-30T10:20:12.845Z,1026.81
2018-12-30T10:21:12.781Z,1026.92
2018-12-30T10:22:12.785Z,1026.91
2018-12-30T10:23:12.754Z,1026.86
2018-12-30T10:24:12.739Z,1026.91
2018-12-30T10:25:12.976Z,1026.93
2018-12-30T10:26:12.765Z,1026.90
2018-12-30T10:27:12.724Z,1026.91
2018-12-30T10:28:12.725Z,1026.96
2018-12-30T10:29:12.684Z,1026.94
2018-12-30T10:30:12.672Z,1027.00
2018-12-30T10:31:12.665Z,1027.02
2018-12-30T10:32:12.660Z,1027.02
2018-12-30T10:33:12.678Z,1026.98
2018-12-30T10:34:12.647Z,1027.01
2018-12-30T10:35:12.617Z,1027.04
2018-12-30T10:36:12.630Z,1027.01
2018-12-30T10:37:12.604Z,1027.04
2018-12-30T10:38:12.585Z,1027.12
2018-12-30T10:39:12.615Z,1027.07
2018-12-30T10:40:12.583Z,1027.07
2018-12-30T10:41:12.847Z,1027.14
2018-12-30T10:42:12.555Z,1027.09
2018-12-30T10:43:12.576Z,1027.08
2018-12-30T10:44:12.530Z,1027.00
2018-12-30T10:45:12.503Z,1026.99
2018-12-30T10:46:12.504Z,1027.04
2018-12-30T10:47:12.528Z,1027.04
2018-12-30T10:48:12.475Z,1027.09
2018-12-30T10:49:12.467Z,1027.00
2018-12-30T10:50:12.692Z,1027.08
2018-12-30T10:51:12.848Z,1027.07
2018-12-30T10:52:12.528Z,1027.16
2018-12-30T10:53:12.416Z,1027.17
2018-12-30T10:54:12.414Z,1027.18
2018-12-30T10:55:12.397Z,1027.18
2018-12-30T10:56:12.393Z,1027.21
2018-12-30T10:57:12.402Z,1027.20
2018-12-30T10:58:12.364Z,1027.20
2018-12-30T10:59:12.369Z,1027.23
2018-12-30T11:00:12.377Z,1027.23
2018-12-30T11:01:12.325Z,1027.26
2018-12-30T11:02:12.429Z,1027.16
2018-12-30T11:03:12.370Z,1027.15
2018-12-30T11:04:12.838Z,1027.16
2018-12-30T11:05:12.297Z,1027.13
2018-12-30T11:06:12.275Z,1027.17
2018-12-30T11:07:12.276Z,1027.13
2018-12-30T11:08:12.553Z,1027.09
2018-12-30T11:09:12.241Z,1027.10
2018-12-30T11:10:12.253Z,1027.09
2018-12-30T11:11:12.473Z,1027.06
2018-12-30T11:12:12.213Z,1027.04
2018-12-30T11:13:12.458Z,1027.02
2018-12-30T11:14:12.196Z,1027.03
2018-12-30T11:15:12.196Z,1027.01
2018-12-30T11:16:12.158Z,1027.03
2018-12-30T11:17:12.670Z,1027.03
2018-12-30T11:18:12.135Z,1027.00
2018-12-30T11:19:12.213Z,1026.93
2018-12-30T11:20:12.113Z,1026.91
2018-12-30T11:21:12.194Z,1026.89
2018-12-30T11:22:12.103Z,1026.90
2018-12-30T11:23:12.095Z,1026.83
2018-12-30T11:24:12.070Z,1026.84
2018-12-30T11:25:12.554Z,1026.79
2018-12-30T11:26:12.072Z,1026.80
2018-12-30T11:27:12.248Z,1026.78
2018-12-30T11:28:12.033Z,1026.79
2018-12-30T11:29:12.020Z,1026.79
2018-12-30T11:30:12.015Z,1026.78
2018-12-30T11:31:13.797Z,1026.72
2018-12-30T11:32:11.993Z,1026.72
2018-12-30T11:33:11.976Z,1026.64
2018-12-30T11:34:11.960Z,1026.55
2018-12-30T11:35:11.956Z,1026.54
2018-12-30T11:36:11.953Z,1026.49
2018-12-30T11:37:11.946Z,1026.45
2018-12-30T11:38:11.936Z,1026.42
2018-12-30T11:39:11.974Z,1026.38
2018-12-30T11:40:11.893Z,1026.45
2018-12-30T11:41:12.135Z,1026.44
2018-12-30T11:42:11.881Z,1026.44
2018-12-30T11:43:11.973Z,1026.43
2018-12-30T11:44:11.850Z,1026.42
2018-12-30T11:45:11.840Z,1026.41
2018-12-30T11:46:11.835Z,1026.45
2018-12-30T11:47:12.304Z,1026.49
2018-12-30T11:48:11.862Z,1026.49
2018-12-30T11:49:11.948Z,1026.55
2018-12-30T11:50:11.780Z,1026.47
2018-12-30T11:51:11.770Z,1026.50
2018-12-30T11:52:11.765Z,1026.56
2018-12-30T11:53:11.764Z,1026.46
2018-12-30T11:54:16.387Z,1026.41
2018-12-30T11:55:11.726Z,1026.44
2018-12-30T11:56:11.714Z,1026.46
2018-12-30T11:57:11.706Z,1026.46
2018-12-30T11:58:11.970Z,1026.44
2018-12-30T11:59:11.724Z,1026.41
2018-12-30T12:00:11.677Z,1026.40
2018-12-30T12:01:11.660Z,1026.35
2018-12-30T12:02:11.651Z,1026.33
2018-12-30T12:03:11.649Z,1026.32
2018-12-30T12:04:11.625Z,1026.24
2018-12-30T12:05:11.621Z,1026.21